AUA6CE LOWW-EIDW
Flight info
| Callsign | AUA6CE |
|---|---|
| Flight time | 2h 35m |
| Altitude | 36000 |
| Route | BUWUT DCT DITIS DCT VARIK DCT KATCE DCT RKN L602 SPY DCT RAVLO Y70 OTBED L60 PENIL UL28 DANDI/N0372F240 L28 LELDO M145 BAGSO |
| Aircraft | A320/M-SDE3FGHIRWY/LB1 |
Departure
| Time | 2026-04-22 10:33 |
|---|---|
| Airport | Vienna International Airport (LOWW) |
Arrival
| Time | 2026-04-22 13:08 |
|---|---|
| Airport | Dublin Airport (EIDW) |
| Time | Latitude | Longitude | Altitude | Speed | Heading |
|---|---|---|---|---|---|
| 2026-04-22 09:33 | 48.11658 | 16.56955 | 623 ft | 0 kts | 25° |
| 2026-04-22 10:23 | 48.11644 | 16.56945 | 624 ft | 3 kts | 26° |
| 2026-04-22 10:23 | 48.11626 | 16.56931 | 617 ft | 3 kts | 29° |
| 2026-04-22 10:24 | 48.11608 | 16.56916 | 618 ft | 3 kts | 38° |
| 2026-04-22 10:24 | 48.11594 | 16.56896 | 621 ft | 3 kts | 68° |
| 2026-04-22 10:24 | 48.11592 | 16.56879 | 626 ft | 1 kts | 115° |
| 2026-04-22 10:24 | 48.11592 | 16.56878 | 626 ft | 0 kts | 116° |
| 2026-04-22 10:27 | 48.11591 | 16.56882 | 626 ft | 2 kts | 116° |
| 2026-04-22 10:27 | 48.11587 | 16.56893 | 622 ft | 1 kts | 116° |
| 2026-04-22 10:28 | 48.11576 | 16.56927 | 612 ft | 6 kts | 116° |
| 2026-04-22 10:28 | 48.11551 | 16.57004 | 617 ft | 9 kts | 116° |
| 2026-04-22 10:28 | 48.11526 | 16.57079 | 618 ft | 7 kts | 116° |
| 2026-04-22 10:28 | 48.11506 | 16.57142 | 613 ft | 6 kts | 115° |
| 2026-04-22 10:29 | 48.11491 | 16.57191 | 614 ft | 4 kts | 115° |
| 2026-04-22 10:29 | 48.11479 | 16.57226 | 616 ft | 3 kts | 115° |
| 2026-04-22 10:29 | 48.11467 | 16.57266 | 622 ft | 7 kts | 116° |
| 2026-04-22 10:29 | 48.11445 | 16.57332 | 612 ft | 6 kts | 116° |
| 2026-04-22 10:30 | 48.11421 | 16.57376 | 632 ft | 5 kts | 151° |
| 2026-04-22 10:30 | 48.11380 | 16.57376 | 609 ft | 8 kts | 200° |
| 2026-04-22 10:30 | 48.11327 | 16.57341 | 615 ft | 8 kts | 205° |
| 2026-04-22 10:30 | 48.11282 | 16.57309 | 619 ft | 6 kts | 205° |
| 2026-04-22 10:31 | 48.11247 | 16.57284 | 609 ft | 6 kts | 206° |
| 2026-04-22 10:31 | 48.11202 | 16.57250 | 611 ft | 9 kts | 206° |
| 2026-04-22 10:31 | 48.11137 | 16.57204 | 615 ft | 12 kts | 206° |
| 2026-04-22 10:31 | 48.11066 | 16.57139 | 619 ft | 11 kts | 237° |
| 2026-04-22 10:32 | 48.11076 | 16.57039 | 616 ft | 9 kts | 296° |
| 2026-04-22 10:32 | 48.11111 | 16.56930 | 609 ft | 25 kts | 296° |
| 2026-04-22 10:32 | 48.11297 | 16.56362 | 613 ft | 93 kts | 295° |
| 2026-04-22 10:32 | 48.11667 | 16.55225 | 615 ft | 147 kts | 296° |
| 2026-04-22 10:33 | 48.12149 | 16.53703 | 911 ft | 166 kts | 298° |
| 2026-04-22 10:33 | 48.12438 | 16.52034 | 1715 ft | 173 kts | 265° |
| 2026-04-22 10:33 | 48.11809 | 16.50493 | 2424 ft | 182 kts | 217° |
| 2026-04-22 10:33 | 48.10712 | 16.49543 | 3043 ft | 181 kts | 211° |
| 2026-04-22 10:34 | 48.09594 | 16.48650 | 3583 ft | 184 kts | 212° |
| 2026-04-22 10:34 | 48.08441 | 16.47659 | 3880 ft | 202 kts | 214° |
| 2026-04-22 10:34 | 48.07377 | 16.46191 | 4090 ft | 217 kts | 244° |
| 2026-04-22 10:34 | 48.06688 | 16.44044 | 4304 ft | 241 kts | 249° |
| 2026-04-22 10:35 | 48.05979 | 16.41649 | 4713 ft | 262 kts | 250° |
| 2026-04-22 10:35 | 48.05244 | 16.39141 | 5409 ft | 269 kts | 249° |
| 2026-04-22 10:35 | 48.04461 | 16.36585 | 6257 ft | 272 kts | 248° |
| 2026-04-22 10:35 | 48.03665 | 16.33995 | 7022 ft | 277 kts | 250° |
| 2026-04-22 10:36 | 48.03196 | 16.31229 | 7770 ft | 275 kts | 269° |
| 2026-04-22 10:36 | 48.03242 | 16.28381 | 8575 ft | 275 kts | 277° |
| 2026-04-22 10:36 | 48.03400 | 16.25511 | 9318 ft | 279 kts | 278° |
| 2026-04-22 10:36 | 48.03620 | 16.22609 | 10066 ft | 282 kts | 284° |
| 2026-04-22 10:37 | 48.04220 | 16.19814 | 10744 ft | 283 kts | 297° |
| 2026-04-22 10:37 | 48.06181 | 16.14374 | 11393 ft | 319 kts | 300° |
| 2026-04-22 10:37 | 48.07236 | 16.11389 | 11869 ft | 328 kts | 300° |
| 2026-04-22 10:38 | 48.08301 | 16.08345 | 12537 ft | 333 kts | 299° |
| 2026-04-22 10:38 | 48.09377 | 16.05261 | 13242 ft | 336 kts | 299° |
| 2026-04-22 10:38 | 48.10465 | 16.02149 | 13928 ft | 339 kts | 298° |
| 2026-04-22 10:38 | 48.11565 | 15.99051 | 14534 ft | 342 kts | 302° |
| 2026-04-22 10:39 | 48.12981 | 15.96180 | 15152 ft | 343 kts | 314° |
| 2026-04-22 10:39 | 48.14772 | 15.93821 | 15766 ft | 345 kts | 325° |
| 2026-04-22 10:39 | 48.16879 | 15.92070 | 16360 ft | 348 kts | 337° |
| 2026-04-22 10:39 | 48.19135 | 15.90728 | 16957 ft | 351 kts | 338° |
| 2026-04-22 10:40 | 48.21412 | 15.89370 | 17552 ft | 354 kts | 338° |
| 2026-04-22 10:40 | 48.23708 | 15.87989 | 18132 ft | 357 kts | 338° |
| 2026-04-22 10:40 | 48.26021 | 15.86589 | 18687 ft | 360 kts | 337° |
| 2026-04-22 10:40 | 48.28350 | 15.85178 | 19198 ft | 362 kts | 337° |
| 2026-04-22 10:41 | 48.30694 | 15.83757 | 19715 ft | 365 kts | 337° |
| 2026-04-22 10:41 | 48.33055 | 15.82326 | 20234 ft | 367 kts | 337° |
| 2026-04-22 10:41 | 48.35431 | 15.80882 | 20763 ft | 369 kts | 337° |
| 2026-04-22 10:41 | 48.37821 | 15.79428 | 21262 ft | 372 kts | 337° |
| 2026-04-22 10:42 | 48.40232 | 15.77964 | 21787 ft | 374 kts | 337° |
| 2026-04-22 10:42 | 48.42657 | 15.76494 | 22304 ft | 377 kts | 337° |
| 2026-04-22 10:42 | 48.45096 | 15.75014 | 22789 ft | 379 kts | 336° |
| 2026-04-22 10:42 | 48.47551 | 15.73519 | 23270 ft | 382 kts | 336° |
| 2026-04-22 10:43 | 48.50021 | 15.72010 | 23751 ft | 384 kts | 336° |
| 2026-04-22 10:43 | 48.52505 | 15.70488 | 24148 ft | 387 kts | 336° |
| 2026-04-22 10:43 | 48.54973 | 15.68977 | 24536 ft | 389 kts | 336° |
| 2026-04-22 10:43 | 48.57488 | 15.67437 | 24907 ft | 391 kts | 336° |
| 2026-04-22 10:44 | 48.60016 | 15.65890 | 25274 ft | 393 kts | 336° |
| 2026-04-22 10:44 | 48.62557 | 15.64333 | 25634 ft | 395 kts | 336° |
| 2026-04-22 10:44 | 48.65105 | 15.62768 | 25986 ft | 397 kts | 336° |
| 2026-04-22 10:44 | 48.67563 | 15.60863 | 26329 ft | 397 kts | 326° |
| 2026-04-22 10:45 | 48.69756 | 15.58309 | 26659 ft | 399 kts | 316° |
| 2026-04-22 10:45 | 48.71029 | 15.56297 | 26872 ft | 400 kts | 310° |
| 2026-04-22 10:45 | 48.72634 | 15.52840 | 27201 ft | 402 kts | 300° |
| 2026-04-22 10:45 | 48.73995 | 15.49124 | 27525 ft | 404 kts | 299° |
| 2026-04-22 10:46 | 48.75358 | 15.45391 | 27844 ft | 406 kts | 299° |
| 2026-04-22 10:46 | 48.76733 | 15.41633 | 28166 ft | 408 kts | 299° |
| 2026-04-22 10:46 | 48.78112 | 15.37858 | 28478 ft | 410 kts | 299° |
| 2026-04-22 10:46 | 48.79496 | 15.34068 | 28788 ft | 412 kts | 300° |
| 2026-04-22 10:47 | 48.80965 | 15.30336 | 29082 ft | 413 kts | 306° |
| 2026-04-22 10:47 | 48.82652 | 15.26781 | 29370 ft | 415 kts | 306° |
| 2026-04-22 10:47 | 48.84345 | 15.23219 | 29649 ft | 417 kts | 306° |
| 2026-04-22 10:47 | 48.86044 | 15.19631 | 29921 ft | 419 kts | 306° |
| 2026-04-22 10:48 | 48.87722 | 15.16076 | 30180 ft | 420 kts | 306° |
| 2026-04-22 10:48 | 48.89425 | 15.12459 | 30417 ft | 422 kts | 306° |
| 2026-04-22 10:48 | 48.91170 | 15.08850 | 30619 ft | 424 kts | 308° |
| 2026-04-22 10:48 | 48.93000 | 15.05325 | 30822 ft | 426 kts | 309° |
| 2026-04-22 10:49 | 48.94892 | 15.01839 | 31012 ft | 427 kts | 310° |
| 2026-04-22 10:49 | 48.96800 | 14.98383 | 31306 ft | 426 kts | 310° |
| 2026-04-22 10:49 | 48.98710 | 14.94920 | 31570 ft | 426 kts | 310° |
| 2026-04-22 10:49 | 49.00602 | 14.91448 | 31827 ft | 426 kts | 309° |
| 2026-04-22 10:50 | 49.02482 | 14.87952 | 32080 ft | 427 kts | 309° |
| 2026-04-22 10:50 | 49.04353 | 14.84436 | 32338 ft | 427 kts | 309° |
| 2026-04-22 10:50 | 49.06215 | 14.80904 | 32598 ft | 427 kts | 309° |
| 2026-04-22 10:50 | 49.08072 | 14.77371 | 32846 ft | 427 kts | 309° |
| 2026-04-22 10:51 | 49.09931 | 14.73833 | 33092 ft | 427 kts | 309° |
| 2026-04-22 10:51 | 49.11794 | 14.70295 | 33339 ft | 428 kts | 309° |
| 2026-04-22 10:51 | 49.13660 | 14.66757 | 33588 ft | 428 kts | 309° |
| 2026-04-22 10:51 | 49.15529 | 14.63217 | 33830 ft | 428 kts | 309° |
| 2026-04-22 10:52 | 49.17398 | 14.59670 | 34078 ft | 429 kts | 309° |
| 2026-04-22 10:52 | 49.19265 | 14.56118 | 34247 ft | 429 kts | 309° |
| 2026-04-22 10:52 | 49.21137 | 14.52552 | 34284 ft | 430 kts | 309° |
| 2026-04-22 10:53 | 49.24848 | 14.45463 | 34280 ft | 429 kts | 309° |
| 2026-04-22 10:53 | 49.28579 | 14.38323 | 34287 ft | 429 kts | 308° |
| 2026-04-22 10:54 | 49.32306 | 14.31164 | 34288 ft | 430 kts | 308° |
| 2026-04-22 10:54 | 49.36025 | 14.23986 | 34288 ft | 430 kts | 308° |
| 2026-04-22 10:55 | 49.39749 | 14.16797 | 34287 ft | 430 kts | 308° |
| 2026-04-22 10:55 | 49.43472 | 14.09600 | 34290 ft | 430 kts | 308° |
| 2026-04-22 10:56 | 49.47189 | 14.02381 | 34293 ft | 430 kts | 308° |
| 2026-04-22 10:56 | 49.50903 | 13.95148 | 34291 ft | 431 kts | 308° |
| 2026-04-22 10:57 | 49.54618 | 13.87895 | 34293 ft | 431 kts | 308° |
| 2026-04-22 10:57 | 49.58309 | 13.80686 | 34294 ft | 431 kts | 308° |
| 2026-04-22 10:58 | 49.62008 | 13.73427 | 34296 ft | 431 kts | 308° |
| 2026-04-22 10:58 | 49.65705 | 13.66133 | 34302 ft | 430 kts | 308° |
| 2026-04-22 10:59 | 49.69367 | 13.58901 | 34302 ft | 430 kts | 308° |
| 2026-04-22 10:59 | 49.73054 | 13.51610 | 34302 ft | 430 kts | 308° |
| 2026-04-22 11:00 | 49.76739 | 13.44320 | 34300 ft | 430 kts | 308° |
| 2026-04-22 11:00 | 49.80407 | 13.37019 | 34300 ft | 430 kts | 308° |
| 2026-04-22 11:01 | 49.84080 | 13.29677 | 34300 ft | 430 kts | 308° |
| 2026-04-22 11:01 | 49.87630 | 13.22568 | 34307 ft | 430 kts | 308° |
| 2026-04-22 11:02 | 49.91278 | 13.15264 | 34308 ft | 430 kts | 308° |
| 2026-04-22 11:02 | 49.94939 | 13.07895 | 34304 ft | 431 kts | 308° |
| 2026-04-22 11:03 | 49.98581 | 13.00545 | 34301 ft | 431 kts | 308° |
| 2026-04-22 11:03 | 50.02237 | 12.93147 | 34300 ft | 431 kts | 308° |
| 2026-04-22 11:04 | 50.05897 | 12.85720 | 34306 ft | 431 kts | 308° |
| 2026-04-22 11:04 | 50.09527 | 12.78338 | 34303 ft | 432 kts | 308° |
| 2026-04-22 11:05 | 50.13181 | 12.70887 | 34298 ft | 432 kts | 308° |
| 2026-04-22 11:05 | 50.16836 | 12.63417 | 34305 ft | 432 kts | 308° |
| 2026-04-22 11:06 | 50.20457 | 12.55987 | 34320 ft | 433 kts | 308° |
| 2026-04-22 11:06 | 50.24104 | 12.48479 | 34330 ft | 433 kts | 308° |
| 2026-04-22 11:07 | 50.27736 | 12.40973 | 34332 ft | 433 kts | 308° |
| 2026-04-22 11:07 | 50.31381 | 12.33458 | 34345 ft | 433 kts | 309° |
| 2026-04-22 11:08 | 50.35060 | 12.25980 | 34322 ft | 434 kts | 309° |
| 2026-04-22 11:08 | 50.38745 | 12.18474 | 34341 ft | 434 kts | 309° |
| 2026-04-22 11:09 | 50.42407 | 12.10949 | 34336 ft | 435 kts | 309° |
| 2026-04-22 11:09 | 50.46067 | 12.03401 | 34342 ft | 435 kts | 309° |
| 2026-04-22 11:10 | 50.49733 | 11.95841 | 34337 ft | 435 kts | 309° |
| 2026-04-22 11:10 | 50.53394 | 11.88252 | 34344 ft | 436 kts | 309° |
| 2026-04-22 11:11 | 50.57053 | 11.80625 | 34349 ft | 436 kts | 309° |
| 2026-04-22 11:11 | 50.60718 | 11.73014 | 34358 ft | 437 kts | 309° |
| 2026-04-22 11:12 | 50.64358 | 11.65416 | 34358 ft | 437 kts | 308° |
| 2026-04-22 11:12 | 50.68013 | 11.57747 | 34367 ft | 438 kts | 308° |
| 2026-04-22 11:13 | 50.71665 | 11.50061 | 34357 ft | 438 kts | 308° |
| 2026-04-22 11:13 | 50.75323 | 11.42342 | 34368 ft | 439 kts | 308° |
| 2026-04-22 11:14 | 50.78980 | 11.34611 | 34362 ft | 439 kts | 308° |
| 2026-04-22 11:14 | 50.82634 | 11.26880 | 34369 ft | 439 kts | 308° |
| 2026-04-22 11:15 | 50.86279 | 11.19134 | 34372 ft | 439 kts | 308° |
| 2026-04-22 11:15 | 50.89919 | 11.11369 | 34383 ft | 439 kts | 308° |
| 2026-04-22 11:16 | 50.93535 | 11.03642 | 34379 ft | 439 kts | 308° |
| 2026-04-22 11:16 | 50.97172 | 10.95835 | 34381 ft | 440 kts | 308° |
| 2026-04-22 11:17 | 51.00802 | 10.88011 | 34375 ft | 440 kts | 308° |
| 2026-04-22 11:17 | 51.04434 | 10.80179 | 34379 ft | 440 kts | 308° |
| 2026-04-22 11:18 | 51.08065 | 10.72322 | 34370 ft | 441 kts | 308° |
| 2026-04-22 11:18 | 51.11691 | 10.64443 | 34374 ft | 441 kts | 308° |
| 2026-04-22 11:19 | 51.15309 | 10.56554 | 34362 ft | 441 kts | 308° |
| 2026-04-22 11:19 | 51.18923 | 10.48645 | 34372 ft | 441 kts | 308° |
| 2026-04-22 11:20 | 51.22537 | 10.40726 | 34366 ft | 441 kts | 308° |
| 2026-04-22 11:20 | 51.25813 | 10.32518 | 34372 ft | 445 kts | 296° |
| 2026-04-22 11:21 | 51.28232 | 10.23406 | 34363 ft | 446 kts | 295° |
| 2026-04-22 11:21 | 51.30633 | 10.14270 | 34369 ft | 446 kts | 295° |
| 2026-04-22 11:22 | 51.33042 | 10.05126 | 34362 ft | 446 kts | 295° |
| 2026-04-22 11:22 | 51.35451 | 9.95966 | 34368 ft | 446 kts | 295° |
| 2026-04-22 11:23 | 51.37847 | 9.86797 | 34363 ft | 446 kts | 295° |
| 2026-04-22 11:23 | 51.40216 | 9.77676 | 34372 ft | 446 kts | 295° |
| 2026-04-22 11:24 | 51.42594 | 9.68475 | 34364 ft | 446 kts | 295° |
| 2026-04-22 11:24 | 51.44969 | 9.59286 | 34251 ft | 446 kts | 295° |
| 2026-04-22 11:24 | 51.46157 | 9.54670 | 34388 ft | 448 kts | 295° |
| 2026-04-22 11:25 | 51.47330 | 9.50101 | 34379 ft | 447 kts | 295° |
| 2026-04-22 11:25 | 51.49700 | 9.40842 | 34383 ft | 447 kts | 295° |
| 2026-04-22 11:26 | 51.52059 | 9.31574 | 34379 ft | 447 kts | 295° |
| 2026-04-22 11:26 | 51.54393 | 9.22365 | 34379 ft | 447 kts | 295° |
| 2026-04-22 11:27 | 51.56743 | 9.13083 | 34377 ft | 447 kts | 295° |
| 2026-04-22 11:27 | 51.59084 | 9.03815 | 34379 ft | 447 kts | 295° |
| 2026-04-22 11:28 | 51.61413 | 8.94523 | 34379 ft | 447 kts | 295° |
| 2026-04-22 11:28 | 51.63726 | 8.85223 | 34380 ft | 448 kts | 294° |
| 2026-04-22 11:29 | 51.66037 | 8.75911 | 34380 ft | 448 kts | 294° |
| 2026-04-22 11:29 | 51.67959 | 8.68168 | 34382 ft | 448 kts | 294° |
| 2026-04-22 11:30 | 51.70635 | 8.57329 | 34377 ft | 448 kts | 294° |
| 2026-04-22 11:30 | 51.72557 | 8.49499 | 34371 ft | 448 kts | 294° |
| 2026-04-22 11:31 | 51.74826 | 8.40218 | 34391 ft | 448 kts | 294° |
| 2026-04-22 11:31 | 51.77103 | 8.30850 | 34383 ft | 448 kts | 294° |
| 2026-04-22 11:32 | 51.79374 | 8.21478 | 34386 ft | 448 kts | 294° |
| 2026-04-22 11:32 | 51.81641 | 8.12101 | 34382 ft | 448 kts | 294° |
| 2026-04-22 11:33 | 51.83899 | 8.02731 | 34389 ft | 448 kts | 294° |
| 2026-04-22 11:33 | 51.86150 | 7.93338 | 34387 ft | 448 kts | 294° |
| 2026-04-22 11:34 | 51.88389 | 7.83936 | 34401 ft | 448 kts | 294° |
| 2026-04-22 11:34 | 51.90617 | 7.74527 | 34398 ft | 447 kts | 294° |
| 2026-04-22 11:35 | 51.92840 | 7.65119 | 34399 ft | 447 kts | 294° |
| 2026-04-22 11:35 | 51.95043 | 7.55760 | 34399 ft | 447 kts | 294° |
| 2026-04-22 11:36 | 51.97250 | 7.46338 | 34400 ft | 447 kts | 294° |
| 2026-04-22 11:36 | 51.99449 | 7.36905 | 34398 ft | 447 kts | 294° |
| 2026-04-22 11:37 | 52.01642 | 7.27474 | 34393 ft | 446 kts | 293° |
| 2026-04-22 11:37 | 52.03823 | 7.18025 | 34390 ft | 446 kts | 293° |
| 2026-04-22 11:38 | 52.05995 | 7.08580 | 34387 ft | 446 kts | 293° |
| 2026-04-22 11:38 | 52.09230 | 6.94412 | 34389 ft | 446 kts | 293° |
| 2026-04-22 11:39 | 52.11369 | 6.85011 | 34384 ft | 445 kts | 293° |
| 2026-04-22 11:39 | 52.13506 | 6.75558 | 34384 ft | 445 kts | 293° |
| 2026-04-22 11:40 | 52.15628 | 6.66097 | 34385 ft | 445 kts | 293° |
| 2026-04-22 11:40 | 52.17728 | 6.56623 | 34382 ft | 444 kts | 292° |
| 2026-04-22 11:41 | 52.19817 | 6.47142 | 34392 ft | 444 kts | 292° |
| 2026-04-22 11:41 | 52.21897 | 6.37659 | 34384 ft | 444 kts | 292° |
| 2026-04-22 11:42 | 52.23966 | 6.28178 | 34383 ft | 443 kts | 292° |
| 2026-04-22 11:42 | 52.26031 | 6.18697 | 34381 ft | 443 kts | 292° |
| 2026-04-22 11:43 | 52.28086 | 6.09218 | 34380 ft | 443 kts | 292° |
| 2026-04-22 11:43 | 52.30131 | 5.99732 | 34385 ft | 442 kts | 292° |
| 2026-04-22 11:44 | 52.32163 | 5.90250 | 34383 ft | 442 kts | 292° |
| 2026-04-22 11:44 | 52.34188 | 5.80760 | 34397 ft | 442 kts | 292° |
| 2026-04-22 11:45 | 52.36212 | 5.71269 | 34405 ft | 441 kts | 292° |
| 2026-04-22 11:45 | 52.38217 | 5.61784 | 34408 ft | 441 kts | 291° |
| 2026-04-22 11:46 | 52.40202 | 5.52345 | 34407 ft | 441 kts | 291° |
| 2026-04-22 11:46 | 52.42192 | 5.42852 | 34408 ft | 440 kts | 291° |
| 2026-04-22 11:47 | 52.44171 | 5.33359 | 34408 ft | 440 kts | 291° |
| 2026-04-22 11:47 | 52.46141 | 5.23860 | 34408 ft | 439 kts | 291° |
| 2026-04-22 11:48 | 52.48102 | 5.14366 | 34408 ft | 439 kts | 291° |
| 2026-04-22 11:48 | 52.50054 | 5.04862 | 34407 ft | 439 kts | 291° |
| 2026-04-22 11:49 | 52.51989 | 4.95433 | 34411 ft | 438 kts | 291° |
| 2026-04-22 11:49 | 52.53923 | 4.85938 | 34406 ft | 438 kts | 291° |
| 2026-04-22 11:50 | 52.55966 | 4.76497 | 34412 ft | 437 kts | 293° |
| 2026-04-22 11:50 | 52.58156 | 4.67175 | 34412 ft | 437 kts | 293° |
| 2026-04-22 11:51 | 52.60337 | 4.57842 | 34414 ft | 437 kts | 293° |
| 2026-04-22 11:51 | 52.62464 | 4.48479 | 34418 ft | 436 kts | 292° |
| 2026-04-22 11:52 | 52.64572 | 4.39109 | 34422 ft | 437 kts | 292° |
| 2026-04-22 11:52 | 52.66658 | 4.29786 | 34421 ft | 436 kts | 292° |
| 2026-04-22 11:53 | 52.68753 | 4.20393 | 34423 ft | 436 kts | 292° |
| 2026-04-22 11:53 | 52.70843 | 4.11001 | 34428 ft | 436 kts | 292° |
| 2026-04-22 11:54 | 52.72924 | 4.01613 | 34432 ft | 435 kts | 291° |
| 2026-04-22 11:54 | 52.74997 | 3.92229 | 34433 ft | 435 kts | 292° |
| 2026-04-22 11:55 | 52.77060 | 3.82845 | 34432 ft | 435 kts | 291° |
| 2026-04-22 11:55 | 52.79111 | 3.73439 | 34432 ft | 435 kts | 291° |
| 2026-04-22 11:56 | 52.81157 | 3.64030 | 34437 ft | 435 kts | 291° |
| 2026-04-22 11:56 | 52.83199 | 3.54618 | 34435 ft | 435 kts | 291° |
| 2026-04-22 11:57 | 52.85232 | 3.45193 | 34430 ft | 435 kts | 291° |
| 2026-04-22 11:57 | 52.87238 | 3.35825 | 34429 ft | 435 kts | 291° |
| 2026-04-22 11:58 | 52.89254 | 3.26385 | 34432 ft | 435 kts | 291° |
| 2026-04-22 11:58 | 52.91262 | 3.16927 | 34438 ft | 435 kts | 290° |
| 2026-04-22 11:59 | 52.92726 | 3.07188 | 34443 ft | 436 kts | 284° |
| 2026-04-22 12:00 | 52.95199 | 2.88448 | 34456 ft | 437 kts | 283° |
| 2026-04-22 12:00 | 52.96474 | 2.78596 | 34450 ft | 437 kts | 283° |
| 2026-04-22 12:01 | 52.97745 | 2.68740 | 34458 ft | 437 kts | 283° |
| 2026-04-22 12:01 | 52.99018 | 2.58885 | 34453 ft | 437 kts | 283° |
| 2026-04-22 12:02 | 53.00280 | 2.49017 | 34455 ft | 437 kts | 283° |
| 2026-04-22 12:02 | 53.01532 | 2.39134 | 34452 ft | 437 kts | 282° |
| 2026-04-22 12:03 | 53.02764 | 2.29320 | 34457 ft | 437 kts | 282° |
| 2026-04-22 12:03 | 53.04000 | 2.19429 | 34453 ft | 437 kts | 282° |
| 2026-04-22 12:04 | 53.05221 | 2.09548 | 34454 ft | 436 kts | 282° |
| 2026-04-22 12:04 | 53.06439 | 1.99691 | 34461 ft | 435 kts | 282° |
| 2026-04-22 12:05 | 53.07647 | 1.89834 | 34459 ft | 434 kts | 282° |
| 2026-04-22 12:05 | 53.08841 | 1.79988 | 34466 ft | 433 kts | 282° |
| 2026-04-22 12:06 | 53.10017 | 1.70180 | 34451 ft | 432 kts | 282° |
| 2026-04-22 12:06 | 53.11178 | 1.60449 | 34457 ft | 431 kts | 282° |
| 2026-04-22 12:07 | 53.12337 | 1.50681 | 34458 ft | 429 kts | 282° |
| 2026-04-22 12:07 | 53.13487 | 1.40945 | 34460 ft | 428 kts | 282° |
| 2026-04-22 12:08 | 53.14624 | 1.31213 | 34456 ft | 428 kts | 282° |
| 2026-04-22 12:08 | 53.15750 | 1.21480 | 34459 ft | 427 kts | 282° |
| 2026-04-22 12:09 | 53.16871 | 1.11760 | 34468 ft | 426 kts | 282° |
| 2026-04-22 12:09 | 53.17984 | 1.02060 | 34460 ft | 426 kts | 282° |
| 2026-04-22 12:10 | 53.19073 | 0.92418 | 34457 ft | 425 kts | 282° |
| 2026-04-22 12:10 | 53.20157 | 0.82745 | 34459 ft | 424 kts | 282° |
| 2026-04-22 12:11 | 53.21239 | 0.73062 | 34458 ft | 423 kts | 282° |
| 2026-04-22 12:11 | 53.22308 | 0.63409 | 34455 ft | 422 kts | 282° |
| 2026-04-22 12:12 | 53.23365 | 0.53771 | 34450 ft | 421 kts | 282° |
| 2026-04-22 12:12 | 53.24407 | 0.44152 | 34449 ft | 421 kts | 282° |
| 2026-04-22 12:13 | 53.25447 | 0.34603 | 34450 ft | 421 kts | 282° |
| 2026-04-22 12:13 | 53.26489 | 0.24985 | 34446 ft | 420 kts | 282° |
| 2026-04-22 12:14 | 53.27510 | 0.15372 | 34445 ft | 420 kts | 282° |
| 2026-04-22 12:14 | 53.28517 | 0.05760 | 34443 ft | 420 kts | 282° |
| 2026-04-22 12:15 | 53.29529 | -0.03844 | 34442 ft | 419 kts | 282° |
| 2026-04-22 12:15 | 53.30532 | -0.13441 | 34443 ft | 419 kts | 282° |
| 2026-04-22 12:16 | 53.31515 | -0.22997 | 34443 ft | 419 kts | 282° |
| 2026-04-22 12:16 | 53.32497 | -0.32602 | 34442 ft | 419 kts | 282° |
| 2026-04-22 12:17 | 53.33467 | -0.42220 | 34439 ft | 419 kts | 282° |
| 2026-04-22 12:17 | 53.34427 | -0.51827 | 34442 ft | 419 kts | 282° |
| 2026-04-22 12:18 | 53.35386 | -0.61445 | 34442 ft | 418 kts | 282° |
| 2026-04-22 12:18 | 53.36341 | -0.71054 | 34442 ft | 418 kts | 281° |
| 2026-04-22 12:19 | 53.37281 | -0.80602 | 34440 ft | 418 kts | 281° |
| 2026-04-22 12:19 | 53.38221 | -0.90266 | 34442 ft | 418 kts | 281° |
| 2026-04-22 12:20 | 53.39143 | -0.99811 | 34439 ft | 417 kts | 281° |
| 2026-04-22 12:20 | 53.40060 | -1.09420 | 34442 ft | 417 kts | 281° |
| 2026-04-22 12:21 | 53.40969 | -1.19027 | 34440 ft | 417 kts | 281° |
| 2026-04-22 12:21 | 53.41873 | -1.28627 | 34441 ft | 417 kts | 281° |
| 2026-04-22 12:22 | 53.42762 | -1.38227 | 34438 ft | 416 kts | 281° |
| 2026-04-22 12:22 | 53.43647 | -1.47827 | 34431 ft | 416 kts | 280° |
| 2026-04-22 12:23 | 53.44521 | -1.57412 | 34436 ft | 416 kts | 280° |
| 2026-04-22 12:23 | 53.45374 | -1.66941 | 34433 ft | 415 kts | 280° |
| 2026-04-22 12:24 | 53.46231 | -1.76502 | 34427 ft | 414 kts | 280° |
| 2026-04-22 12:24 | 53.47077 | -1.86055 | 34414 ft | 414 kts | 280° |
| 2026-04-22 12:25 | 53.47917 | -1.95615 | 34412 ft | 414 kts | 279° |
| 2026-04-22 12:25 | 53.48755 | -2.05173 | 34410 ft | 414 kts | 279° |
| 2026-04-22 12:26 | 53.49579 | -2.14748 | 34413 ft | 414 kts | 279° |
| 2026-04-22 12:26 | 53.50387 | -2.24263 | 34415 ft | 414 kts | 279° |
| 2026-04-22 12:27 | 53.51200 | -2.33843 | 34407 ft | 414 kts | 279° |
| 2026-04-22 12:27 | 53.52004 | -2.43380 | 34407 ft | 414 kts | 279° |
| 2026-04-22 12:28 | 53.52797 | -2.52975 | 34404 ft | 414 kts | 279° |
| 2026-04-22 12:28 | 53.53587 | -2.62579 | 34390 ft | 415 kts | 278° |
| 2026-04-22 12:29 | 53.54373 | -2.72197 | 34393 ft | 415 kts | 278° |
| 2026-04-22 12:29 | 53.55155 | -2.81826 | 34383 ft | 415 kts | 278° |
| 2026-04-22 12:30 | 53.56294 | -2.96211 | 34384 ft | 416 kts | 278° |
| 2026-04-22 12:31 | 53.57046 | -3.05858 | 34383 ft | 416 kts | 278° |
| 2026-04-22 12:31 | 53.57795 | -3.15517 | 34381 ft | 416 kts | 278° |
| 2026-04-22 12:32 | 53.58541 | -3.25185 | 34381 ft | 417 kts | 278° |
| 2026-04-22 12:32 | 53.59636 | -3.39692 | 34384 ft | 417 kts | 277° |
| 2026-04-22 12:33 | 53.60356 | -3.49377 | 34383 ft | 417 kts | 277° |
| 2026-04-22 12:33 | 53.61071 | -3.59067 | 34386 ft | 417 kts | 277° |
| 2026-04-22 12:34 | 53.62178 | -3.68644 | 34384 ft | 417 kts | 289° |
| 2026-04-22 12:34 | 53.64338 | -3.77674 | 34385 ft | 418 kts | 291° |
| 2026-04-22 12:35 | 53.66512 | -3.86761 | 34387 ft | 418 kts | 291° |
| 2026-04-22 12:35 | 53.68667 | -3.95873 | 34389 ft | 418 kts | 291° |
| 2026-04-22 12:36 | 53.70818 | -4.05004 | 34385 ft | 418 kts | 288° |
| 2026-04-22 12:36 | 53.71898 | -4.14440 | 34208 ft | 399 kts | 274° |
| 2026-04-22 12:37 | 53.72070 | -4.19088 | 33788 ft | 393 kts | 274° |
| 2026-04-22 12:37 | 53.72241 | -4.23667 | 33322 ft | 388 kts | 274° |
| 2026-04-22 12:37 | 53.72410 | -4.28197 | 32841 ft | 385 kts | 273° |
| 2026-04-22 12:37 | 53.72575 | -4.32628 | 32377 ft | 381 kts | 273° |
| 2026-04-22 12:38 | 53.72736 | -4.37068 | 31910 ft | 378 kts | 273° |
| 2026-04-22 12:38 | 53.72895 | -4.41483 | 31454 ft | 374 kts | 273° |
| 2026-04-22 12:38 | 53.73052 | -4.45853 | 31007 ft | 371 kts | 273° |
| 2026-04-22 12:38 | 53.73208 | -4.50188 | 30571 ft | 368 kts | 273° |
| 2026-04-22 12:39 | 53.73361 | -4.54485 | 30089 ft | 365 kts | 272° |
| 2026-04-22 12:39 | 53.73664 | -4.62983 | 29098 ft | 360 kts | 272° |
| 2026-04-22 12:39 | 53.73810 | -4.67184 | 28627 ft | 357 kts | 272° |
| 2026-04-22 12:40 | 53.73951 | -4.71363 | 28158 ft | 355 kts | 272° |
| 2026-04-22 12:40 | 53.74087 | -4.75509 | 27681 ft | 353 kts | 272° |
| 2026-04-22 12:40 | 53.74222 | -4.79637 | 27221 ft | 351 kts | 272° |
| 2026-04-22 12:40 | 53.74353 | -4.83744 | 26759 ft | 349 kts | 272° |
| 2026-04-22 12:41 | 53.74484 | -4.87822 | 26308 ft | 347 kts | 272° |
| 2026-04-22 12:41 | 53.74616 | -4.91883 | 25848 ft | 345 kts | 272° |
| 2026-04-22 12:41 | 53.74744 | -4.95920 | 25416 ft | 343 kts | 272° |
| 2026-04-22 12:41 | 53.74870 | -4.99883 | 24978 ft | 341 kts | 272° |
| 2026-04-22 12:42 | 53.74997 | -5.03885 | 24535 ft | 340 kts | 272° |
| 2026-04-22 12:42 | 53.75124 | -5.07862 | 24079 ft | 339 kts | 272° |
| 2026-04-22 12:42 | 53.75161 | -5.11834 | 23587 ft | 337 kts | 265° |
| 2026-04-22 12:42 | 53.74854 | -5.15745 | 23075 ft | 335 kts | 257° |
| 2026-04-22 12:43 | 53.74207 | -5.19516 | 22592 ft | 334 kts | 250° |
| 2026-04-22 12:43 | 53.73453 | -5.23212 | 22129 ft | 333 kts | 250° |
| 2026-04-22 12:43 | 53.72705 | -5.26903 | 21677 ft | 332 kts | 250° |
| 2026-04-22 12:43 | 53.71962 | -5.30584 | 21236 ft | 331 kts | 250° |
| 2026-04-22 12:44 | 53.71219 | -5.34252 | 20799 ft | 330 kts | 250° |
| 2026-04-22 12:44 | 53.70727 | -5.36677 | 20510 ft | 329 kts | 250° |
| 2026-04-22 12:44 | 53.69983 | -5.40322 | 20110 ft | 328 kts | 250° |
| 2026-04-22 12:44 | 53.69239 | -5.43944 | 19710 ft | 327 kts | 249° |
| 2026-04-22 12:45 | 53.68496 | -5.47565 | 19308 ft | 326 kts | 249° |
| 2026-04-22 12:45 | 53.67838 | -5.51218 | 18926 ft | 326 kts | 256° |
| 2026-04-22 12:45 | 53.67364 | -5.54953 | 18517 ft | 325 kts | 256° |
| 2026-04-22 12:45 | 53.66886 | -5.58670 | 18079 ft | 324 kts | 255° |
| 2026-04-22 12:46 | 53.66401 | -5.62383 | 17666 ft | 323 kts | 255° |
| 2026-04-22 12:46 | 53.65913 | -5.66079 | 17248 ft | 322 kts | 253° |
| 2026-04-22 12:46 | 53.65424 | -5.69765 | 16848 ft | 322 kts | 253° |
| 2026-04-22 12:46 | 53.64935 | -5.73440 | 16461 ft | 321 kts | 253° |
| 2026-04-22 12:47 | 53.64455 | -5.77057 | 16090 ft | 320 kts | 252° |
| 2026-04-22 12:47 | 53.63970 | -5.80719 | 15724 ft | 319 kts | 252° |
| 2026-04-22 12:47 | 53.63487 | -5.84363 | 15365 ft | 318 kts | 253° |
| 2026-04-22 12:47 | 53.63004 | -5.87989 | 15010 ft | 317 kts | 252° |
| 2026-04-22 12:48 | 53.62521 | -5.91600 | 14670 ft | 315 kts | 252° |
| 2026-04-22 12:48 | 53.62039 | -5.95197 | 14336 ft | 314 kts | 252° |
| 2026-04-22 12:48 | 53.61558 | -5.98784 | 13986 ft | 313 kts | 252° |
| 2026-04-22 12:48 | 53.61078 | -6.02351 | 13598 ft | 312 kts | 252° |
| 2026-04-22 12:49 | 53.60600 | -6.05904 | 13215 ft | 311 kts | 252° |
| 2026-04-22 12:49 | 53.60121 | -6.09448 | 12839 ft | 310 kts | 252° |
| 2026-04-22 12:49 | 53.59644 | -6.12958 | 12499 ft | 307 kts | 252° |
| 2026-04-22 12:49 | 53.59166 | -6.16470 | 12141 ft | 306 kts | 252° |
| 2026-04-22 12:50 | 53.58689 | -6.19960 | 11769 ft | 305 kts | 252° |
| 2026-04-22 12:50 | 53.58218 | -6.23389 | 11405 ft | 304 kts | 252° |
| 2026-04-22 12:50 | 53.57745 | -6.26854 | 11003 ft | 303 kts | 252° |
| 2026-04-22 12:50 | 53.57281 | -6.30279 | 10764 ft | 295 kts | 252° |
| 2026-04-22 12:51 | 53.57117 | -6.33703 | 10484 ft | 296 kts | 273° |
| 2026-04-22 12:51 | 53.57714 | -6.36991 | 10217 ft | 295 kts | 297° |
| 2026-04-22 12:51 | 53.58984 | -6.39648 | 9923 ft | 290 kts | 322° |
| 2026-04-22 12:51 | 53.60672 | -6.41417 | 9663 ft | 284 kts | 334° |
| 2026-04-22 12:52 | 53.62397 | -6.42994 | 9390 ft | 281 kts | 334° |
| 2026-04-22 12:52 | 53.64072 | -6.44660 | 9127 ft | 280 kts | 324° |
| 2026-04-22 12:52 | 53.65449 | -6.46969 | 8868 ft | 279 kts | 305° |
| 2026-04-22 12:52 | 53.66460 | -6.49749 | 8608 ft | 278 kts | 298° |
| 2026-04-22 12:53 | 53.67429 | -6.52561 | 8410 ft | 277 kts | 299° |
| 2026-04-22 12:53 | 53.68402 | -6.55366 | 8353 ft | 276 kts | 299° |
| 2026-04-22 12:53 | 53.69305 | -6.58227 | 8358 ft | 276 kts | 289° |
| 2026-04-22 12:53 | 53.69771 | -6.61337 | 8358 ft | 272 kts | 271° |
| 2026-04-22 12:54 | 53.69799 | -6.64504 | 8360 ft | 270 kts | 264° |
| 2026-04-22 12:54 | 53.69767 | -6.67630 | 8360 ft | 270 kts | 264° |
| 2026-04-22 12:54 | 53.69738 | -6.70796 | 8357 ft | 270 kts | 264° |
| 2026-04-22 12:54 | 53.69658 | -6.73947 | 8355 ft | 266 kts | 256° |
| 2026-04-22 12:55 | 53.69213 | -6.76898 | 8353 ft | 255 kts | 241° |
| 2026-04-22 12:55 | 53.68402 | -6.79499 | 8349 ft | 248 kts | 230° |
| 2026-04-22 12:55 | 53.67480 | -6.81964 | 8352 ft | 248 kts | 230° |
| 2026-04-22 12:55 | 53.66563 | -6.84430 | 8349 ft | 248 kts | 231° |
| 2026-04-22 12:56 | 53.65649 | -6.86894 | 8342 ft | 248 kts | 230° |
| 2026-04-22 12:56 | 53.64590 | -6.89136 | 8343 ft | 241 kts | 217° |
| 2026-04-22 12:56 | 53.63312 | -6.90905 | 8340 ft | 234 kts | 205° |
| 2026-04-22 12:56 | 53.61907 | -6.92132 | 8339 ft | 227 kts | 191° |
| 2026-04-22 12:57 | 53.60388 | -6.92635 | 8337 ft | 219 kts | 175° |
| 2026-04-22 12:57 | 53.58901 | -6.92368 | 8333 ft | 213 kts | 160° |
| 2026-04-22 12:57 | 53.57550 | -6.91415 | 8282 ft | 208 kts | 146° |
| 2026-04-22 12:57 | 53.56437 | -6.89906 | 7931 ft | 205 kts | 131° |
| 2026-04-22 12:58 | 53.55634 | -6.87943 | 7584 ft | 204 kts | 116° |
| 2026-04-22 12:58 | 53.55200 | -6.85666 | 7233 ft | 206 kts | 101° |
| 2026-04-22 12:58 | 53.55081 | -6.83264 | 6887 ft | 206 kts | 98° |
| 2026-04-22 12:58 | 53.54957 | -6.80881 | 6568 ft | 204 kts | 98° |
| 2026-04-22 12:59 | 53.54826 | -6.78507 | 6220 ft | 203 kts | 98° |
| 2026-04-22 12:59 | 53.54698 | -6.76156 | 5973 ft | 200 kts | 98° |
| 2026-04-22 12:59 | 53.54573 | -6.73874 | 5710 ft | 197 kts | 98° |
| 2026-04-22 12:59 | 53.54434 | -6.71617 | 5481 ft | 192 kts | 105° |
| 2026-04-22 13:00 | 53.53926 | -6.69600 | 5222 ft | 187 kts | 126° |
| 2026-04-22 13:00 | 53.52984 | -6.68113 | 4974 ft | 187 kts | 146° |
| 2026-04-22 13:00 | 53.51763 | -6.67359 | 4708 ft | 191 kts | 167° |
| 2026-04-22 13:00 | 53.50427 | -6.67409 | 4448 ft | 193 kts | 179° |
| 2026-04-22 13:01 | 53.49113 | -6.67626 | 4257 ft | 185 kts | 179° |
| 2026-04-22 13:01 | 53.47863 | -6.67809 | 4030 ft | 175 kts | 173° |
| 2026-04-22 13:01 | 53.46757 | -6.67314 | 3851 ft | 161 kts | 145° |
| 2026-04-22 13:01 | 53.45988 | -6.66015 | 3667 ft | 157 kts | 120° |
| 2026-04-22 13:02 | 53.45687 | -6.64254 | 3492 ft | 160 kts | 99° |
| 2026-04-22 13:02 | 53.45588 | -6.62398 | 3362 ft | 160 kts | 101° |
| 2026-04-22 13:02 | 53.45464 | -6.60564 | 3255 ft | 161 kts | 101° |
| 2026-04-22 13:02 | 53.45353 | -6.58703 | 3151 ft | 157 kts | 100° |
| 2026-04-22 13:03 | 53.45258 | -6.56948 | 3068 ft | 146 kts | 99° |
| 2026-04-22 13:03 | 53.45169 | -6.55281 | 3002 ft | 142 kts | 99° |
| 2026-04-22 13:03 | 53.45082 | -6.53649 | 2987 ft | 140 kts | 99° |
| 2026-04-22 13:03 | 53.44996 | -6.52020 | 2977 ft | 140 kts | 99° |
| 2026-04-22 13:04 | 53.44910 | -6.50392 | 2888 ft | 140 kts | 99° |
| 2026-04-22 13:04 | 53.44822 | -6.48728 | 2745 ft | 149 kts | 99° |
| 2026-04-22 13:04 | 53.44732 | -6.47021 | 2548 ft | 145 kts | 98° |
| 2026-04-22 13:04 | 53.44644 | -6.45355 | 2347 ft | 141 kts | 97° |
| 2026-04-22 13:05 | 53.44558 | -6.43731 | 2160 ft | 138 kts | 96° |
| 2026-04-22 13:05 | 53.44474 | -6.42147 | 1974 ft | 134 kts | 96° |
| 2026-04-22 13:05 | 53.44393 | -6.40628 | 1785 ft | 131 kts | 96° |
| 2026-04-22 13:05 | 53.44311 | -6.39091 | 1607 ft | 130 kts | 96° |
| 2026-04-22 13:06 | 53.44229 | -6.37578 | 1423 ft | 130 kts | 96° |
| 2026-04-22 13:06 | 53.44149 | -6.36087 | 1250 ft | 130 kts | 95° |
| 2026-04-22 13:06 | 53.44069 | -6.34576 | 1062 ft | 130 kts | 95° |
| 2026-04-22 13:06 | 53.43988 | -6.33063 | 902 ft | 130 kts | 95° |
| 2026-04-22 13:07 | 53.43907 | -6.31535 | 674 ft | 132 kts | 95° |
| 2026-04-22 13:07 | 53.43819 | -6.29996 | 506 ft | 131 kts | 96° |
| 2026-04-22 13:07 | 53.43736 | -6.28494 | 313 ft | 127 kts | 94° |
| 2026-04-22 13:07 | 53.43667 | -6.27109 | 211 ft | 108 kts | 94° |
| 2026-04-22 13:08 | 53.43610 | -6.26121 | 210 ft | 61 kts | 95° |
| 2026-04-22 13:08 | 53.43577 | -6.25506 | 215 ft | 44 kts | 95° |
| 2026-04-22 13:08 | 53.43517 | -6.25192 | 216 ft | 25 kts | 121° |
| 2026-04-22 13:08 | 53.43442 | -6.24997 | 216 ft | 14 kts | 147° |
| 2026-04-22 13:09 | 53.43376 | -6.25025 | 211 ft | 9 kts | 264° |
| 2026-04-22 13:09 | 53.43383 | -6.25136 | 211 ft | 10 kts | 276° |
| 2026-04-22 13:09 | 53.43390 | -6.25258 | 213 ft | 11 kts | 276° |
| 2026-04-22 13:09 | 53.43397 | -6.25387 | 211 ft | 12 kts | 275° |
| 2026-04-22 13:10 | 53.43405 | -6.25532 | 211 ft | 13 kts | 275° |
| 2026-04-22 13:10 | 53.43374 | -6.25648 | 211 ft | 11 kts | 193° |
| 2026-04-22 13:10 | 53.43304 | -6.25613 | 211 ft | 11 kts | 156° |
| 2026-04-22 13:10 | 53.43225 | -6.25555 | 211 ft | 13 kts | 156° |
| 2026-04-22 13:11 | 53.43134 | -6.25488 | 219 ft | 15 kts | 158° |
| 2026-04-22 13:11 | 53.43029 | -6.25414 | 213 ft | 17 kts | 156° |
| 2026-04-22 13:11 | 53.42945 | -6.25320 | 211 ft | 13 kts | 97° |
| 2026-04-22 13:11 | 53.42961 | -6.25168 | 211 ft | 14 kts | 95° |
| 2026-04-22 13:12 | 53.42953 | -6.25000 | 211 ft | 15 kts | 95° |
| 2026-04-22 13:12 | 53.42944 | -6.24837 | 211 ft | 11 kts | 96° |
| 2026-04-22 13:12 | 53.42939 | -6.24726 | 211 ft | 8 kts | 82° |
| 2026-04-22 13:12 | 53.42968 | -6.24687 | 211 ft | 3 kts | 12° |
| 2026-04-22 13:13 | 53.42985 | -6.24683 | 211 ft | 2 kts | 6° |
| 2026-04-22 13:13 | 53.42996 | -6.24681 | 211 ft | 1 kts | 5° |